sensor_id;sensor_type;location;lat;lon;timestamp;P1;durP1;ratioP1;P2;durP2;ratioP2
18623;SDS011;9441;51.420;7.036;2023-10-13T00:00:16;25.38;;;13.88;;
18623;SDS011;9441;51.420;7.036;2023-10-13T00:01:26;26.60;;;14.05;;
18623;SDS011;9441;51.420;7.036;2023-10-13T00:02:28;25.92;;;14.23;;
18623;SDS011;9441;51.420;7.036;2023-10-13T00:03:29;26.00;;;14.55;;
18623;SDS011;9441;51.420;7.036;2023-10-13T00:04:32;27.83;;;14.02;;
18623;SDS011;9441;51.420;7.036;2023-10-13T00:05:36;27.67;;;14.45;;
18623;SDS011;9441;51.420;7.036;2023-10-13T00:06:38;22.88;;;13.40;;
18623;SDS011;9441;51.420;7.036;2023-10-13T00:07:39;26.02;;;13.77;;
18623;SDS011;9441;51.420;7.036;2023-10-13T00:08:42;28.83;;;14.40;;
18623;SDS011;9441;51.420;7.036;2023-10-13T00:09:45;28.00;;;14.43;;
18623;SDS011;9441;51.420;7.036;2023-10-13T00:10:47;27.02;;;13.32;;
18623;SDS011;9441;51.420;7.036;2023-10-13T00:11:48;23.60;;;13.18;;
18623;SDS011;9441;51.420;7.036;2023-10-13T00:12:52;24.92;;;13.80;;
18623;SDS011;9441;51.420;7.036;2023-10-13T00:13:54;23.27;;;13.20;;
18623;SDS011;9441;51.420;7.036;2023-10-13T00:14:56;25.83;;;13.70;;
18623;SDS011;9441;51.420;7.036;2023-10-13T00:16:04;21.95;;;12.98;;
18623;SDS011;9441;51.420;7.036;2023-10-13T00:17:09;23.30;;;12.88;;
18623;SDS011;9441;51.420;7.036;2023-10-13T00:18:19;26.80;;;13.10;;
18623;SDS011;9441;51.420;7.036;2023-10-13T00:19:22;20.83;;;12.85;;
18623;SDS011;9441;51.420;7.036;2023-10-13T00:20:24;22.73;;;13.20;;
18623;SDS011;9441;51.420;7.036;2023-10-13T00:21:35;26.88;;;13.07;;
18623;SDS011;9441;51.420;7.036;2023-10-13T00:22:37;22.92;;;13.18;;
18623;SDS011;9441;51.420;7.036;2023-10-13T00:23:42;28.10;;;13.68;;
18623;SDS011;9441;51.420;7.036;2023-10-13T00:24:53;25.13;;;13.35;;
18623;SDS011;9441;51.420;7.036;2023-10-13T00:25:59;23.35;;;13.73;;
18623;SDS011;9441;51.420;7.036;2023-10-13T00:27:02;22.33;;;12.32;;
18623;SDS011;9441;51.420;7.036;2023-10-13T00:28:06;26.85;;;13.60;;
18623;SDS011;9441;51.420;7.036;2023-10-13T00:29:09;23.20;;;13.50;;
18623;SDS011;9441;51.420;7.036;2023-10-13T00:30:17;24.15;;;12.45;;
18623;SDS011;9441;51.420;7.036;2023-10-13T00:31:22;26.05;;;13.32;;
18623;SDS011;9441;51.420;7.036;2023-10-13T00:32:26;21.30;;;12.65;;
18623;SDS011;9441;51.420;7.036;2023-10-13T00:33:27;23.48;;;13.25;;
18623;SDS011;9441;51.420;7.036;2023-10-13T00:34:32;19.55;;;12.70;;
18623;SDS011;9441;51.420;7.036;2023-10-13T00:35:37;23.55;;;13.40;;
18623;SDS011;9441;51.420;7.036;2023-10-13T00:36:42;22.38;;;12.52;;
18623;SDS011;9441;51.420;7.036;2023-10-13T00:37:48;26.17;;;13.55;;
18623;SDS011;9441;51.420;7.036;2023-10-13T00:38:53;18.85;;;12.30;;
18623;SDS011;9441;51.420;7.036;2023-10-13T00:39:58;27.17;;;13.07;;
18623;SDS011;9441;51.420;7.036;2023-10-13T00:41:01;22.90;;;12.75;;
18623;SDS011;9441;51.420;7.036;2023-10-13T00:42:14;21.45;;;13.25;;
18623;SDS011;9441;51.420;7.036;2023-10-13T00:43:20;26.90;;;13.00;;
18623;SDS011;9441;51.420;7.036;2023-10-13T00:44:35;21.85;;;11.98;;
18623;SDS011;9441;51.420;7.036;2023-10-13T00:45:43;18.45;;;12.05;;
18623;SDS011;9441;51.420;7.036;2023-10-13T00:46:45;23.25;;;12.93;;
18623;SDS011;9441;51.420;7.036;2023-10-13T00:47:46;23.13;;;12.77;;
18623;SDS011;9441;51.420;7.036;2023-10-13T00:48:56;22.65;;;12.57;;
18623;SDS011;9441;51.420;7.036;2023-10-13T00:49:59;22.50;;;11.85;;
18623;SDS011;9441;51.420;7.036;2023-10-13T00:51:01;18.70;;;11.95;;
18623;SDS011;9441;51.420;7.036;2023-10-13T00:52:03;24.63;;;12.90;;
18623;SDS011;9441;51.420;7.036;2023-10-13T00:53:04;22.10;;;12.18;;
18623;SDS011;9441;51.420;7.036;2023-10-13T00:54:07;18.27;;;11.32;;
18623;SDS011;9441;51.420;7.036;2023-10-13T00:55:12;21.52;;;11.80;;
18623;SDS011;9441;51.420;7.036;2023-10-13T00:56:15;21.95;;;12.05;;
18623;SDS011;9441;51.420;7.036;2023-10-13T00:57:19;20.48;;;12.13;;
18623;SDS011;9441;51.420;7.036;2023-10-13T00:58:27;23.60;;;12.93;;
18623;SDS011;9441;51.420;7.036;2023-10-13T00:59:29;19.65;;;11.95;;
18623;SDS011;9441;51.420;7.036;2023-10-13T01:00:33;17.45;;;11.88;;
18623;SDS011;9441;51.420;7.036;2023-10-13T01:01:47;19.45;;;11.85;;
18623;SDS011;9441;51.420;7.036;2023-10-13T01:02:54;22.58;;;11.77;;
18623;SDS011;9441;51.420;7.036;2023-10-13T01:03:56;23.20;;;11.95;;
18623;SDS011;9441;51.420;7.036;2023-10-13T01:04:59;24.58;;;12.00;;
18623;SDS011;9441;51.420;7.036;2023-10-13T01:06:00;23.52;;;11.95;;
18623;SDS011;9441;51.420;7.036;2023-10-13T01:07:04;22.10;;;12.25;;
18623;SDS011;9441;51.420;7.036;2023-10-13T01:08:08;22.42;;;12.50;;
18623;SDS011;9441;51.420;7.036;2023-10-13T01:09:12;24.08;;;11.82;;
18623;SDS011;9441;51.420;7.036;2023-10-13T01:10:18;24.05;;;13.00;;
18623;SDS011;9441;51.420;7.036;2023-10-13T01:11:20;18.08;;;11.40;;
18623;SDS011;9441;51.420;7.036;2023-10-13T01:12:24;21.95;;;12.25;;
18623;SDS011;9441;51.420;7.036;2023-10-13T01:13:25;22.27;;;11.65;;
18623;SDS011;9441;51.420;7.036;2023-10-13T01:14:31;19.48;;;11.35;;
18623;SDS011;9441;51.420;7.036;2023-10-13T01:15:33;20.55;;;11.63;;
18623;SDS011;9441;51.420;7.036;2023-10-13T01:16:34;20.58;;;11.48;;
18623;SDS011;9441;51.420;7.036;2023-10-13T01:17:40;18.55;;;11.30;;
18623;SDS011;9441;51.420;7.036;2023-10-13T01:18:46;22.10;;;11.88;;
18623;SDS011;9441;51.420;7.036;2023-10-13T01:19:48;24.63;;;11.48;;
18623;SDS011;9441;51.420;7.036;2023-10-13T01:20:50;19.27;;;11.88;;
18623;SDS011;9441;51.420;7.036;2023-10-13T01:21:53;17.58;;;11.05;;
18623;SDS011;9441;51.420;7.036;2023-10-13T01:22:57;17.48;;;11.13;;
18623;SDS011;9441;51.420;7.036;2023-10-13T01:24:01;23.08;;;11.60;;
18623;SDS011;9441;51.420;7.036;2023-10-13T01:25:08;19.08;;;11.27;;
18623;SDS011;9441;51.420;7.036;2023-10-13T01:26:13;18.08;;;11.38;;
18623;SDS011;9441;51.420;7.036;2023-10-13T01:27:21;19.88;;;11.10;;
18623;SDS011;9441;51.420;7.036;2023-10-13T01:28:25;21.67;;;10.35;;
18623;SDS011;9441;51.420;7.036;2023-10-13T01:29:26;20.98;;;11.23;;
18623;SDS011;9441;51.420;7.036;2023-10-13T01:30:29;20.25;;;10.48;;
18623;SDS011;9441;51.420;7.036;2023-10-13T01:31:32;20.60;;;11.43;;
18623;SDS011;9441;51.420;7.036;2023-10-13T01:32:37;22.38;;;11.02;;
18623;SDS011;9441;51.420;7.036;2023-10-13T01:33:41;20.55;;;10.88;;
18623;SDS011;9441;51.420;7.036;2023-10-13T01:34:43;18.88;;;11.10;;
18623;SDS011;9441;51.420;7.036;2023-10-13T01:35:46;18.60;;;11.50;;
18623;SDS011;9441;51.420;7.036;2023-10-13T01:36:48;20.63;;;11.43;;
18623;SDS011;9441;51.420;7.036;2023-10-13T01:37:51;18.45;;;11.00;;
18623;SDS011;9441;51.420;7.036;2023-10-13T01:38:52;20.02;;;11.05;;
18623;SDS011;9441;51.420;7.036;2023-10-13T01:39:55;23.58;;;11.23;;
18623;SDS011;9441;51.420;7.036;2023-10-13T01:40:56;20.52;;;11.13;;
18623;SDS011;9441;51.420;7.036;2023-10-13T01:41:59;20.15;;;10.88;;
18623;SDS011;9441;51.420;7.036;2023-10-13T01:43:01;18.42;;;11.05;;
18623;SDS011;9441;51.420;7.036;2023-10-13T01:44:05;17.83;;;10.95;;
18623;SDS011;9441;51.420;7.036;2023-10-13T01:45:07;22.48;;;11.52;;
18623;SDS011;9441;51.420;7.036;2023-10-13T01:46:09;20.35;;;11.25;;
18623;SDS011;9441;51.420;7.036;2023-10-13T01:47:11;25.48;;;11.55;;
18623;SDS011;9441;51.420;7.036;2023-10-13T01:48:12;20.85;;;10.70;;
18623;SDS011;9441;51.420;7.036;2023-10-13T01:49:17;27.20;;;11.50;;
18623;SDS011;9441;51.420;7.036;2023-10-13T01:50:19;20.92;;;10.73;;
18623;SDS011;9441;51.420;7.036;2023-10-13T01:51:22;18.90;;;11.32;;
18623;SDS011;9441;51.420;7.036;2023-10-13T01:52:23;18.83;;;11.55;;
18623;SDS011;9441;51.420;7.036;2023-10-13T01:53:27;17.20;;;11.27;;
18623;SDS011;9441;51.420;7.036;2023-10-13T01:54:30;21.65;;;11.60;;
18623;SDS011;9441;51.420;7.036;2023-10-13T01:55:34;19.80;;;11.82;;
18623;SDS011;9441;51.420;7.036;2023-10-13T01:56:39;17.85;;;11.10;;
18623;SDS011;9441;51.420;7.036;2023-10-13T01:57:44;20.08;;;11.57;;
18623;SDS011;9441;51.420;7.036;2023-10-13T01:58:48;22.17;;;11.52;;
18623;SDS011;9441;51.420;7.036;2023-10-13T01:59:49;18.13;;;11.00;;
18623;SDS011;9441;51.420;7.036;2023-10-13T02:00:52;19.17;;;11.70;;
18623;SDS011;9441;51.420;7.036;2023-10-13T02:01:54;20.88;;;11.57;;
18623;SDS011;9441;51.420;7.036;2023-10-13T02:02:58;26.23;;;11.43;;
18623;SDS011;9441;51.420;7.036;2023-10-13T02:04:03;23.35;;;12.02;;
18623;SDS011;9441;51.420;7.036;2023-10-13T02:05:05;21.00;;;11.90;;
18623;SDS011;9441;51.420;7.036;2023-10-13T02:06:06;23.55;;;12.30;;
18623;SDS011;9441;51.420;7.036;2023-10-13T02:07:11;21.42;;;11.73;;
18623;SDS011;9441;51.420;7.036;2023-10-13T02:08:16;25.30;;;12.60;;
18623;SDS011;9441;51.420;7.036;2023-10-13T02:09:23;18.40;;;11.98;;
18623;SDS011;9441;51.420;7.036;2023-10-13T02:10:27;19.67;;;12.25;;
18623;SDS011;9441;51.420;7.036;2023-10-13T02:11:32;22.73;;;11.75;;
18623;SDS011;9441;51.420;7.036;2023-10-13T02:12:33;21.20;;;12.00;;
18623;SDS011;9441;51.420;7.036;2023-10-13T02:13:42;22.88;;;11.57;;
18623;SDS011;9441;51.420;7.036;2023-10-13T02:14:48;16.52;;;11.60;;
18623;SDS011;9441;51.420;7.036;2023-10-13T02:15:53;27.27;;;12.00;;
18623;SDS011;9441;51.420;7.036;2023-10-13T02:16:57;23.05;;;12.55;;
18623;SDS011;9441;51.420;7.036;2023-10-13T02:18:13;16.23;;;11.40;;
18623;SDS011;9441;51.420;7.036;2023-10-13T02:19:21;20.27;;;11.93;;
18623;SDS011;9441;51.420;7.036;2023-10-13T02:20:22;22.92;;;12.38;;
18623;SDS011;9441;51.420;7.036;2023-10-13T02:21:31;19.63;;;11.45;;
18623;SDS011;9441;51.420;7.036;2023-10-13T02:22:36;21.55;;;11.75;;
18623;SDS011;9441;51.420;7.036;2023-10-13T02:23:38;25.00;;;12.10;;
18623;SDS011;9441;51.420;7.036;2023-10-13T02:24:45;18.02;;;12.02;;
18623;SDS011;9441;51.420;7.036;2023-10-13T02:25:52;23.85;;;12.30;;
18623;SDS011;9441;51.420;7.036;2023-10-13T02:27:03;21.67;;;11.45;;
18623;SDS011;9441;51.420;7.036;2023-10-13T02:28:10;23.42;;;12.32;;
18623;SDS011;9441;51.420;7.036;2023-10-13T02:29:14;21.08;;;11.43;;
18623;SDS011;9441;51.420;7.036;2023-10-13T02:30:18;23.88;;;12.15;;
18623;SDS011;9441;51.420;7.036;2023-10-13T02:31:25;19.55;;;11.68;;
18623;SDS011;9441;51.420;7.036;2023-10-13T02:32:27;20.13;;;11.38;;
18623;SDS011;9441;51.420;7.036;2023-10-13T02:33:30;23.73;;;11.80;;
18623;SDS011;9441;51.420;7.036;2023-10-13T02:34:33;21.17;;;12.13;;
18623;SDS011;9441;51.420;7.036;2023-10-13T02:35:34;20.80;;;11.77;;
18623;SDS011;9441;51.420;7.036;2023-10-13T02:36:37;22.27;;;12.75;;
18623;SDS011;9441;51.420;7.036;2023-10-13T02:37:47;27.30;;;12.77;;
18623;SDS011;9441;51.420;7.036;2023-10-13T02:38:56;21.50;;;12.45;;
18623;SDS011;9441;51.420;7.036;2023-10-13T02:39:58;25.35;;;12.20;;
18623;SDS011;9441;51.420;7.036;2023-10-13T02:41:00;23.38;;;12.30;;
18623;SDS011;9441;51.420;7.036;2023-10-13T02:42:07;21.70;;;12.75;;
18623;SDS011;9441;51.420;7.036;2023-10-13T02:43:08;22.70;;;12.18;;
18623;SDS011;9441;51.420;7.036;2023-10-13T02:44:11;26.20;;;13.13;;
18623;SDS011;9441;51.420;7.036;2023-10-13T02:45:20;26.52;;;12.65;;
18623;SDS011;9441;51.420;7.036;2023-10-13T02:46:26;20.48;;;11.98;;
18623;SDS011;9441;51.420;7.036;2023-10-13T02:47:29;23.90;;;12.60;;
18623;SDS011;9441;51.420;7.036;2023-10-13T02:48:32;21.27;;;13.25;;
18623;SDS011;9441;51.420;7.036;2023-10-13T02:49:40;21.02;;;11.90;;
18623;SDS011;9441;51.420;7.036;2023-10-13T02:50:44;21.63;;;12.30;;
18623;SDS011;9441;51.420;7.036;2023-10-13T02:51:46;22.88;;;11.63;;
18623;SDS011;9441;51.420;7.036;2023-10-13T02:52:48;23.90;;;12.15;;
18623;SDS011;9441;51.420;7.036;2023-10-13T02:53:52;22.55;;;12.60;;
18623;SDS011;9441;51.420;7.036;2023-10-13T02:54:54;23.05;;;12.48;;
18623;SDS011;9441;51.420;7.036;2023-10-13T02:55:57;20.20;;;13.10;;
18623;SDS011;9441;51.420;7.036;2023-10-13T02:57:04;23.42;;;13.48;;
18623;SDS011;9441;51.420;7.036;2023-10-13T02:58:07;23.88;;;12.63;;
18623;SDS011;9441;51.420;7.036;2023-10-13T02:59:09;22.25;;;12.15;;
18623;SDS011;9441;51.420;7.036;2023-10-13T03:00:13;21.42;;;12.05;;
18623;SDS011;9441;51.420;7.036;2023-10-13T03:01:17;24.80;;;12.27;;
18623;SDS011;9441;51.420;7.036;2023-10-13T03:02:18;22.50;;;12.00;;
18623;SDS011;9441;51.420;7.036;2023-10-13T03:03:25;22.27;;;12.38;;
18623;SDS011;9441;51.420;7.036;2023-10-13T03:04:30;18.27;;;11.63;;
18623;SDS011;9441;51.420;7.036;2023-10-13T03:05:34;21.15;;;12.05;;
18623;SDS011;9441;51.420;7.036;2023-10-13T03:06:39;21.27;;;11.95;;
18623;SDS011;9441;51.420;7.036;2023-10-13T03:07:41;21.38;;;11.65;;
18623;SDS011;9441;51.420;7.036;2023-10-13T03:08:44;22.45;;;12.27;;
18623;SDS011;9441;51.420;7.036;2023-10-13T03:09:46;23.35;;;13.00;;
18623;SDS011;9441;51.420;7.036;2023-10-13T03:10:51;21.88;;;12.60;;
18623;SDS011;9441;51.420;7.036;2023-10-13T03:11:54;21.55;;;12.25;;
18623;SDS011;9441;51.420;7.036;2023-10-13T03:12:56;20.42;;;12.05;;
18623;SDS011;9441;51.420;7.036;2023-10-13T03:13:59;22.42;;;12.88;;
18623;SDS011;9441;51.420;7.036;2023-10-13T03:15:07;23.60;;;13.35;;
18623;SDS011;9441;51.420;7.036;2023-10-13T03:16:17;22.15;;;12.48;;
18623;SDS011;9441;51.420;7.036;2023-10-13T03:17:19;24.55;;;13.15;;
18623;SDS011;9441;51.420;7.036;2023-10-13T03:18:33;23.65;;;13.10;;
18623;SDS011;9441;51.420;7.036;2023-10-13T03:19:36;24.05;;;12.77;;
18623;SDS011;9441;51.420;7.036;2023-10-13T03:20:39;27.65;;;13.60;;
18623;SDS011;9441;51.420;7.036;2023-10-13T03:21:42;21.50;;;12.60;;
18623;SDS011;9441;51.420;7.036;2023-10-13T03:22:47;27.60;;;13.30;;
18623;SDS011;9441;51.420;7.036;2023-10-13T03:23:52;23.85;;;13.43;;
18623;SDS011;9441;51.420;7.036;2023-10-13T03:24:54;22.75;;;13.27;;
18623;SDS011;9441;51.420;7.036;2023-10-13T03:26:00;25.75;;;13.85;;
18623;SDS011;9441;51.420;7.036;2023-10-13T03:27:08;24.75;;;13.48;;
18623;SDS011;9441;51.420;7.036;2023-10-13T03:28:10;23.92;;;13.85;;
18623;SDS011;9441;51.420;7.036;2023-10-13T03:29:17;21.92;;;13.65;;
18623;SDS011;9441;51.420;7.036;2023-10-13T03:30:22;22.83;;;14.13;;
18623;SDS011;9441;51.420;7.036;2023-10-13T03:31:31;26.67;;;13.65;;
18623;SDS011;9441;51.420;7.036;2023-10-13T03:32:37;20.95;;;13.95;;
18623;SDS011;9441;51.420;7.036;2023-10-13T03:33:44;25.88;;;14.05;;
18623;SDS011;9441;51.420;7.036;2023-10-13T03:34:46;23.05;;;13.82;;
18623;SDS011;9441;51.420;7.036;2023-10-13T03:36:11;22.35;;;13.15;;
18623;SDS011;9441;51.420;7.036;2023-10-13T03:37:34;23.60;;;14.35;;
18623;SDS011;9441;51.420;7.036;2023-10-13T03:38:38;24.65;;;14.10;;
18623;SDS011;9441;51.420;7.036;2023-10-13T03:39:40;27.98;;;14.98;;
18623;SDS011;9441;51.420;7.036;2023-10-13T03:40:45;27.60;;;14.82;;
18623;SDS011;9441;51.420;7.036;2023-10-13T03:41:49;26.52;;;15.35;;
18623;SDS011;9441;51.420;7.036;2023-10-13T03:42:54;27.73;;;14.68;;
18623;SDS011;9441;51.420;7.036;2023-10-13T03:43:59;26.30;;;15.75;;
18623;SDS011;9441;51.420;7.036;2023-10-13T03:45:14;27.10;;;15.40;;
18623;SDS011;9441;51.420;7.036;2023-10-13T03:46:18;27.55;;;16.02;;
18623;SDS011;9441;51.420;7.036;2023-10-13T03:47:22;28.35;;;15.07;;
18623;SDS011;9441;51.420;7.036;2023-10-13T03:48:26;29.00;;;15.48;;
18623;SDS011;9441;51.420;7.036;2023-10-13T03:49:32;29.83;;;15.50;;
18623;SDS011;9441;51.420;7.036;2023-10-13T03:50:37;26.45;;;15.25;;
18623;SDS011;9441;51.420;7.036;2023-10-13T03:51:46;28.00;;;16.20;;
18623;SDS011;9441;51.420;7.036;2023-10-13T03:52:49;27.40;;;16.15;;
18623;SDS011;9441;51.420;7.036;2023-10-13T03:53:53;27.60;;;16.08;;
18623;SDS011;9441;51.420;7.036;2023-10-13T03:54:56;32.00;;;15.90;;
18623;SDS011;9441;51.420;7.036;2023-10-13T03:55:59;30.98;;;15.98;;
18623;SDS011;9441;51.420;7.036;2023-10-13T03:57:12;32.28;;;15.98;;
18623;SDS011;9441;51.420;7.036;2023-10-13T03:58:13;25.30;;;16.25;;
18623;SDS011;9441;51.420;7.036;2023-10-13T03:59:17;29.42;;;15.55;;
18623;SDS011;9441;51.420;7.036;2023-10-13T04:00:20;27.50;;;15.30;;
18623;SDS011;9441;51.420;7.036;2023-10-13T04:01:26;32.95;;;17.40;;
18623;SDS011;9441;51.420;7.036;2023-10-13T04:02:31;31.08;;;15.52;;
18623;SDS011;9441;51.420;7.036;2023-10-13T04:03:34;26.00;;;14.93;;
18623;SDS011;9441;51.420;7.036;2023-10-13T04:04:36;24.15;;;15.18;;
18623;SDS011;9441;51.420;7.036;2023-10-13T04:05:48;22.73;;;14.70;;
18623;SDS011;9441;51.420;7.036;2023-10-13T04:07:01;25.10;;;14.75;;
18623;SDS011;9441;51.420;7.036;2023-10-13T04:08:17;25.17;;;15.00;;
18623;SDS011;9441;51.420;7.036;2023-10-13T04:09:38;28.00;;;15.07;;
18623;SDS011;9441;51.420;7.036;2023-10-13T04:11:11;24.85;;;14.18;;
18623;SDS011;9441;51.420;7.036;2023-10-13T04:12:30;24.67;;;14.25;;
18623;SDS011;9441;51.420;7.036;2023-10-13T04:13:53;28.00;;;15.15;;
18623;SDS011;9441;51.420;7.036;2023-10-13T04:15:12;30.52;;;14.57;;
18623;SDS011;9441;51.420;7.036;2023-10-13T04:16:25;23.10;;;14.18;;
18623;SDS011;9441;51.420;7.036;2023-10-13T04:17:36;32.10;;;14.80;;
18623;SDS011;9441;51.420;7.036;2023-10-13T04:18:44;32.65;;;14.77;;
18623;SDS011;9441;51.420;7.036;2023-10-13T04:20:08;26.05;;;13.52;;
18623;SDS011;9441;51.420;7.036;2023-10-13T04:21:12;23.92;;;14.15;;
18623;SDS011;9441;51.420;7.036;2023-10-13T04:22:40;28.75;;;14.25;;
18623;SDS011;9441;51.420;7.036;2023-10-13T04:24:00;22.58;;;13.82;;
18623;SDS011;9441;51.420;7.036;2023-10-13T04:25:21;27.65;;;14.45;;
18623;SDS011;9441;51.420;7.036;2023-10-13T04:26:35;29.92;;;14.45;;
18623;SDS011;9441;51.420;7.036;2023-10-13T04:27:57;23.67;;;13.27;;
18623;SDS011;9441;51.420;7.036;2023-10-13T04:29:17;24.63;;;13.98;;
18623;SDS011;9441;51.420;7.036;2023-10-13T04:30:48;26.83;;;13.23;;
18623;SDS011;9441;51.420;7.036;2023-10-13T04:32:01;24.83;;;13.40;;
18623;SDS011;9441;51.420;7.036;2023-10-13T04:33:13;23.55;;;14.00;;
18623;SDS011;9441;51.420;7.036;2023-10-13T04:34:36;27.35;;;13.85;;
18623;SDS011;9441;51.420;7.036;2023-10-13T04:35:40;22.75;;;12.93;;
18623;SDS011;9441;51.420;7.036;2023-10-13T04:36:48;22.63;;;12.85;;
18623;SDS011;9441;51.420;7.036;2023-10-13T04:37:57;23.73;;;13.60;;
18623;SDS011;9441;51.420;7.036;2023-10-13T04:39:02;24.23;;;12.93;;
18623;SDS011;9441;51.420;7.036;2023-10-13T04:40:09;22.90;;;13.15;;
18623;SDS011;9441;51.420;7.036;2023-10-13T04:41:11;19.33;;;12.93;;
18623;SDS011;9441;51.420;7.036;2023-10-13T04:42:22;22.40;;;13.55;;
18623;SDS011;9441;51.420;7.036;2023-10-13T04:43:39;25.95;;;13.98;;
18623;SDS011;9441;51.420;7.036;2023-10-13T04:44:55;28.05;;;13.43;;
18623;SDS011;9441;51.420;7.036;2023-10-13T04:46:03;24.80;;;13.60;;
18623;SDS011;9441;51.420;7.036;2023-10-13T04:47:26;21.33;;;12.85;;
18623;SDS011;9441;51.420;7.036;2023-10-13T04:50:01;21.33;;;12.88;;
18623;SDS011;9441;51.420;7.036;2023-10-13T04:51:22;26.63;;;13.60;;
18623;SDS011;9441;51.420;7.036;2023-10-13T04:52:50;24.05;;;12.80;;
18623;SDS011;9441;51.420;7.036;2023-10-13T04:54:01;25.45;;;12.30;;
18623;SDS011;9441;51.420;7.036;2023-10-13T04:55:11;25.90;;;13.15;;
18623;SDS011;9441;51.420;7.036;2023-10-13T04:56:31;26.10;;;13.63;;
18623;SDS011;9441;51.420;7.036;2023-10-13T04:57:50;22.50;;;13.32;;
18623;SDS011;9441;51.420;7.036;2023-10-13T04:59:00;23.58;;;13.70;;
18623;SDS011;9441;51.420;7.036;2023-10-13T05:00:35;22.50;;;13.00;;
18623;SDS011;9441;51.420;7.036;2023-10-13T05:02:06;31.50;;;13.88;;
18623;SDS011;9441;51.420;7.036;2023-10-13T05:03:44;33.47;;;13.80;;
18623;SDS011;9441;51.420;7.036;2023-10-13T05:05:09;26.98;;;12.57;;
18623;SDS011;9441;51.420;7.036;2023-10-13T05:06:43;23.50;;;13.10;;
18623;SDS011;9441;51.420;7.036;2023-10-13T05:08:03;21.75;;;13.13;;
18623;SDS011;9441;51.420;7.036;2023-10-13T05:09:23;25.05;;;12.82;;
18623;SDS011;9441;51.420;7.036;2023-10-13T05:10:45;31.33;;;13.60;;
18623;SDS011;9441;51.420;7.036;2023-10-13T05:12:05;24.98;;;13.45;;
18623;SDS011;9441;51.420;7.036;2023-10-13T05:13:24;24.55;;;13.15;;
18623;SDS011;9441;51.420;7.036;2023-10-13T05:14:44;27.58;;;13.43;;
18623;SDS011;9441;51.420;7.036;2023-10-13T05:16:05;27.10;;;14.18;;
18623;SDS011;9441;51.420;7.036;2023-10-13T05:17:25;27.60;;;14.00;;
18623;SDS011;9441;51.420;7.036;2023-10-13T05:18:46;27.35;;;13.82;;
18623;SDS011;9441;51.420;7.036;2023-10-13T05:20:07;27.30;;;12.88;;
18623;SDS011;9441;51.420;7.036;2023-10-13T05:21:27;22.42;;;12.38;;
18623;SDS011;9441;51.420;7.036;2023-10-13T05:22:47;26.40;;;13.32;;
18623;SDS011;9441;51.420;7.036;2023-10-13T05:24:07;23.30;;;12.25;;
18623;SDS011;9441;51.420;7.036;2023-10-13T05:25:24;23.60;;;12.93;;
18623;SDS011;9441;51.420;7.036;2023-10-13T05:26:44;23.58;;;12.63;;
18623;SDS011;9441;51.420;7.036;2023-10-13T05:28:04;24.70;;;12.93;;
18623;SDS011;9441;51.420;7.036;2023-10-13T05:29:24;32.30;;;12.88;;
18623;SDS011;9441;51.420;7.036;2023-10-13T05:30:44;23.83;;;12.55;;
18623;SDS011;9441;51.420;7.036;2023-10-13T05:32:04;26.02;;;12.75;;
18623;SDS011;9441;51.420;7.036;2023-10-13T05:33:24;25.05;;;12.75;;
18623;SDS011;9441;51.420;7.036;2023-10-13T05:34:45;26.83;;;12.73;;
18623;SDS011;9441;51.420;7.036;2023-10-13T05:36:09;22.77;;;12.75;;
18623;SDS011;9441;51.420;7.036;2023-10-13T05:37:37;25.15;;;12.75;;
18623;SDS011;9441;51.420;7.036;2023-10-13T05:38:57;21.95;;;11.88;;
18623;SDS011;9441;51.420;7.036;2023-10-13T05:40:16;26.83;;;11.82;;
18623;SDS011;9441;51.420;7.036;2023-10-13T05:41:36;25.67;;;12.15;;
18623;SDS011;9441;51.420;7.036;2023-10-13T05:43:11;23.42;;;11.70;;
18623;SDS011;9441;51.420;7.036;2023-10-13T05:44:45;22.77;;;11.77;;
18623;SDS011;9441;51.420;7.036;2023-10-13T05:46:17;22.85;;;12.43;;
18623;SDS011;9441;51.420;7.036;2023-10-13T05:47:49;19.83;;;12.00;;
18623;SDS011;9441;51.420;7.036;2023-10-13T05:49:02;21.98;;;12.02;;
18623;SDS011;9441;51.420;7.036;2023-10-13T05:50:22;23.13;;;12.80;;
18623;SDS011;9441;51.420;7.036;2023-10-13T05:51:50;25.05;;;12.38;;
18623;SDS011;9441;51.420;7.036;2023-10-13T05:52:58;24.48;;;12.73;;
18623;SDS011;9441;51.420;7.036;2023-10-13T05:54:18;20.20;;;11.82;;
18623;SDS011;9441;51.420;7.036;2023-10-13T05:55:38;36.15;;;12.45;;
18623;SDS011;9441;51.420;7.036;2023-10-13T05:56:58;25.90;;;11.50;;
18623;SDS011;9441;51.420;7.036;2023-10-13T05:58:17;25.83;;;11.63;;
18623;SDS011;9441;51.420;7.036;2023-10-13T05:59:37;21.85;;;11.45;;
18623;SDS011;9441;51.420;7.036;2023-10-13T06:00:58;19.77;;;11.32;;
18623;SDS011;9441;51.420;7.036;2023-10-13T06:02:18;23.45;;;10.95;;
18623;SDS011;9441;51.420;7.036;2023-10-13T06:03:38;23.92;;;11.73;;
18623;SDS011;9441;51.420;7.036;2023-10-13T06:04:58;23.25;;;11.30;;
18623;SDS011;9441;51.420;7.036;2023-10-13T06:06:19;22.90;;;10.93;;
18623;SDS011;9441;51.420;7.036;2023-10-13T06:07:38;19.00;;;10.30;;
18623;SDS011;9441;51.420;7.036;2023-10-13T06:08:58;28.02;;;11.43;;
18623;SDS011;9441;51.420;7.036;2023-10-13T06:10:18;16.00;;;10.35;;
18623;SDS011;9441;51.420;7.036;2023-10-13T06:11:38;22.67;;;10.63;;
18623;SDS011;9441;51.420;7.036;2023-10-13T06:12:58;21.60;;;10.65;;
18623;SDS011;9441;51.420;7.036;2023-10-13T06:14:18;23.95;;;10.43;;
18623;SDS011;9441;51.420;7.036;2023-10-13T06:15:37;22.95;;;10.40;;
18623;SDS011;9441;51.420;7.036;2023-10-13T06:16:57;18.40;;;10.32;;
18623;SDS011;9441;51.420;7.036;2023-10-13T06:18:17;23.80;;;10.45;;
18623;SDS011;9441;51.420;7.036;2023-10-13T06:19:37;23.90;;;10.57;;
18623;SDS011;9441;51.420;7.036;2023-10-13T06:20:57;22.27;;;10.63;;
18623;SDS011;9441;51.420;7.036;2023-10-13T06:22:18;27.15;;;10.73;;
18623;SDS011;9441;51.420;7.036;2023-10-13T06:23:38;18.10;;;9.05;;
18623;SDS011;9441;51.420;7.036;2023-10-13T06:24:58;23.05;;;10.20;;
18623;SDS011;9441;51.420;7.036;2023-10-13T06:26:17;22.13;;;10.02;;
18623;SDS011;9441;51.420;7.036;2023-10-13T06:27:37;26.70;;;9.68;;
18623;SDS011;9441;51.420;7.036;2023-10-13T06:28:57;22.38;;;10.07;;
18623;SDS011;9441;51.420;7.036;2023-10-13T06:29:59;25.10;;;9.80;;
18623;SDS011;9441;51.420;7.036;2023-10-13T06:31:01;20.90;;;9.40;;
18623;SDS011;9441;51.420;7.036;2023-10-13T06:32:06;21.80;;;9.27;;
18623;SDS011;9441;51.420;7.036;2023-10-13T06:33:11;20.50;;;8.88;;
18623;SDS011;9441;51.420;7.036;2023-10-13T06:34:13;20.15;;;9.65;;
18623;SDS011;9441;51.420;7.036;2023-10-13T06:35:16;22.25;;;9.88;;
18623;SDS011;9441;51.420;7.036;2023-10-13T06:36:24;25.38;;;8.68;;
18623;SDS011;9441;51.420;7.036;2023-10-13T06:37:27;25.65;;;8.63;;
18623;SDS011;9441;51.420;7.036;2023-10-13T06:38:32;25.70;;;9.95;;
18623;SDS011;9441;51.420;7.036;2023-10-13T06:39:36;20.80;;;9.25;;
18623;SDS011;9441;51.420;7.036;2023-10-13T06:40:38;19.80;;;8.90;;
18623;SDS011;9441;51.420;7.036;2023-10-13T06:41:42;17.55;;;9.02;;
18623;SDS011;9441;51.420;7.036;2023-10-13T06:42:44;24.63;;;9.95;;
18623;SDS011;9441;51.420;7.036;2023-10-13T06:43:46;24.45;;;9.88;;
18623;SDS011;9441;51.420;7.036;2023-10-13T06:44:59;20.15;;;10.07;;
18623;SDS011;9441;51.420;7.036;2023-10-13T06:46:08;19.20;;;8.93;;
18623;SDS011;9441;51.420;7.036;2023-10-13T06:47:15;20.38;;;9.68;;
18623;SDS011;9441;51.420;7.036;2023-10-13T06:48:16;21.80;;;9.98;;
18623;SDS011;9441;51.420;7.036;2023-10-13T06:49:20;22.45;;;10.05;;
18623;SDS011;9441;51.420;7.036;2023-10-13T06:50:23;22.60;;;10.32;;
18623;SDS011;9441;51.420;7.036;2023-10-13T06:51:26;19.42;;;9.82;;